Time;durP1;ratioP1;P1;durP2;ratioP2;P2;SDS_P1;SDS_P2;PMS_P1;PMS_P2;Temp;Humidity;BMP_temperature;BMP_pressure;BME280_temperature;BME280_humidity;BME280_pressure;Samples;Min_cycle;Max_cycle;Signal;HPM_P1;HPM_P2
2022/09/03 00:00:47;;;;;;;14.25;12.85;;;12.00;84.50;;;;;;4900285;29;20190;-88
2022/09/03 00:03:23;;;;;;;13.88;12.52;;;12.00;99.90;;;;;;4900062;29;20251;-86
2022/09/03 00:05:55;;;;;;;13.05;11.90;;;11.90;96.70;;;;;;4899916;29;20416;-86
2022/09/03 00:08:30;;;;;;;13.10;11.95;;;11.90;50.70;;;;;;4900371;29;20194;-86
2022/09/03 00:11:03;;;;;;;13.40;12.23;;;11.90;92.20;;;;;;4900116;29;20190;-86
2022/09/03 00:13:36;;;;;;;13.93;12.63;;;11.80;99.90;;;;;;4899952;29;20178;-86
2022/09/03 00:16:09;;;;;;;14.50;13.05;;;11.80;99.90;;;;;;4899290;29;20197;-88
2022/09/03 00:18:44;;;;;;;14.32;12.88;;;11.80;99.90;;;;;;4899526;29;20210;-86
2022/09/03 00:21:15;;;;;;;15.05;13.45;;;11.80;99.90;;;;;;4899778;29;20185;-86
2022/09/03 00:23:44;;;;;;;14.75;13.27;;;11.70;99.90;;;;;;4899657;29;20243;-85
2022/09/03 00:26:21;;;;;;;13.18;11.95;;;11.70;99.90;;;;;;4899316;29;20197;-86
2022/09/03 00:28:54;;;;;;;14.80;13.30;;;11.60;99.90;;;;;;4899393;29;20212;-86
2022/09/03 00:31:29;;;;;;;14.32;12.98;;;11.60;99.90;;;;;;4899270;29;20190;-86
2022/09/03 00:34:02;;;;;;;14.02;12.75;;;11.50;99.90;;;;;;4899757;29;20189;-86
2022/09/03 00:36:35;;;;;;;13.55;12.35;;;11.40;99.90;;;;;;4899211;29;20194;-88
2022/09/03 00:39:02;;;;;;;12.48;11.45;;;11.40;99.90;;;;;;4899263;29;20214;-86
2022/09/03 00:41:37;;;;;;;12.80;11.75;;;11.40;99.90;;;;;;4899173;29;20198;-86
2022/09/03 00:44:38;;;;;;;11.43;10.52;;;11.40;1.00;;;;;;4899570;29;20194;-86
2022/09/03 00:47:11;;;;;;;12.30;11.37;;;11.30;99.90;;;;;;4899035;29;20193;-86
2022/09/03 00:49:46;;;;;;;;;;;11.30;1.00;;;;;;4899283;29;20213;-87
2022/09/03 00:52:20;;;;;;;;;;;11.30;99.90;;;;;;4899494;29;20246;-86
2022/09/03 00:54:57;;;;;;;29.92;17.80;;;11.30;1.00;;;;;;4897542;29;20872;-86
2022/09/03 00:57:35;;;;;;;13.02;11.88;;;11.30;1.00;;;;;;4882973;29;20194;-85
2022/09/03 01:00:07;;;;;;;14.85;13.25;;;11.30;1.00;;;;;;4880089;29;20257;-87
2022/09/03 01:02:47;;;;;;;14.25;12.80;;;11.30;1.00;;;;;;4880017;29;20188;-87
2022/09/03 01:05:27;;;;;;;14.40;12.95;;;11.30;1.00;;;;;;4879870;29;20697;-87
2022/09/03 01:08:08;;;;;;;14.30;12.88;;;11.30;1.00;;;;;;4869921;29;20182;-86
2022/09/03 01:10:44;;;;;;;13.23;11.98;;;11.30;1.00;;;;;;4898526;29;20657;-86
2022/09/03 01:13:16;;;;;;;13.05;11.88;;;11.20;1.00;;;;;;4898707;29;20197;-87
2022/09/03 01:15:53;;;;;;;14.02;12.55;;;11.20;1.00;;;;;;4898093;29;20203;-86
2022/09/03 01:18:28;;;;;;;16.60;14.05;;;11.20;1.00;;;;;;4898584;29;20228;-88
2022/09/03 01:21:28;;;;;;;17.80;14.52;;;11.20;1.00;;;;;;4898721;29;20245;-87
2022/09/03 01:24:33;;;;;;;16.60;13.88;;;11.20;1.00;;;;;;4898416;29;20662;-87
2022/09/03 01:27:17;;;;;;;15.68;13.70;;;11.20;1.00;;;;;;4886634;29;20253;-86
2022/09/03 01:29:57;;;;;;;15.50;13.63;;;11.20;1.00;;;;;;4879324;29;20256;-86
2022/09/03 01:32:31;;;;;;;15.85;13.95;;;11.20;1.00;;;;;;4880257;29;20549;-86
2022/09/03 01:35:07;;;;;;;14.80;13.13;;;11.20;1.00;;;;;;4879299;29;20569;-89
2022/09/03 01:37:44;;;;;;;16.60;14.18;;;11.20;1.00;;;;;;4879458;29;20276;-86
2022/09/03 01:40:23;;;;;;;16.02;13.65;;;11.10;1.00;;;;;;4879526;29;20210;-86
2022/09/03 01:43:04;;;;;;;16.08;13.75;;;11.10;1.00;;;;;;4879335;29;20205;-88
2022/09/03 01:45:43;;;;;;;14.43;12.98;;;11.10;1.00;;;;;;4879512;29;20636;-86
2022/09/03 01:48:29;;;;;;;14.13;12.68;;;11.10;1.00;;;;;;4860946;29;20195;-86
2022/09/03 01:51:04;;;;;;;15.25;13.32;;;11.10;1.00;;;;;;4861020;29;20666;-86
2022/09/03 01:53:45;;;;;;;15.32;13.50;;;11.10;1.00;;;;;;4860615;29;20215;-86
2022/09/03 01:56:25;;;;;;;16.65;13.93;;;11.00;1.00;;;;;;4866100;29;20213;-86
2022/09/03 01:59:01;;;;;;;17.15;14.23;;;11.00;1.00;;;;;;4879116;29;20214;-86
2022/09/03 02:01:33;;;;;;;17.15;14.02;;;11.00;1.00;;;;;;4879182;29;20194;-86
2022/09/03 02:04:01;;;;;;;17.85;14.30;;;11.00;1.00;;;;;;4878485;29;20187;-87
2022/09/03 02:06:30;;;;;;;18.33;14.38;;;10.90;1.00;;;;;;4878729;29;20725;-86
2022/09/03 02:08:57;;;;;;;17.90;14.40;;;11.00;1.00;;;;;;4878828;29;20668;-86
2022/09/03 02:11:25;;;;;;;17.40;14.15;;;10.90;1.00;;;;;;4879562;29;20206;-86
2022/09/03 02:13:57;;;;;;;17.58;14.27;;;10.90;1.00;;;;;;4878574;29;20230;-84
2022/09/03 02:16:28;;;;;;;17.83;14.32;;;10.90;1.00;;;;;;4860290;29;20187;-87
2022/09/03 02:19:00;;;;;;;18.02;14.60;;;10.80;1.00;;;;;;4860631;29;20250;-86
2022/09/03 02:21:33;;;;;;;16.20;13.70;;;10.80;1.00;;;;;;4860582;29;20191;-87
2022/09/03 02:24:00;;;;;;;15.10;13.30;;;10.80;1.00;;;;;;4860259;29;20187;-86
2022/09/03 02:26:27;;;;;;;16.00;13.77;;;10.90;95.00;;;;;;4878993;29;20190;-87
2022/09/03 02:28:55;;;;;;;14.77;13.20;;;10.80;20.40;;;;;;4878890;29;20267;-88
2022/09/03 02:31:22;;;;;;;15.38;13.77;;;10.80;2.60;;;;;;4879300;29;20210;-87
2022/09/03 02:33:50;;;;;;;15.10;13.52;;;10.80;1.00;;;;;;4878732;29;20756;-87
2022/09/03 02:36:24;;;;;;;14.48;13.00;;;10.80;25.90;;;;;;4878214;29;20198;-86
2022/09/03 02:38:51;;;;;;;14.25;12.82;;;10.80;1.00;;;;;;4878767;29;20187;-87
2022/09/03 02:41:18;;;;;;;13.93;12.57;;;10.80;1.00;;;;;;4880690;29;20202;-87
2022/09/03 02:43:50;;;;;;;14.57;13.13;;;10.80;2.20;;;;;;4882134;29;20532;-86
2022/09/03 02:46:23;;;;;;;13.75;12.43;;;10.80;21.40;;;;;;4882498;29;20648;-89
2022/09/03 02:48:50;;;;;;;13.82;12.52;;;10.80;1.00;;;;;;4882475;29;20190;-86
2022/09/03 02:51:17;;;;;;;13.55;12.30;;;10.80;1.00;;;;;;4901146;29;20732;-87
2022/09/03 02:53:45;;;;;;;13.25;12.05;;;10.80;96.00;;;;;;4900790;29;20210;-88
2022/09/03 02:56:13;;;;;;;12.10;11.07;;;10.80;99.90;;;;;;4900687;29;20194;-86
2022/09/03 02:58:40;;;;;;;12.38;11.35;;;10.80;99.90;;;;;;4901043;29;20201;-89
2022/09/03 03:01:07;;;;;;;12.63;11.52;;;10.70;99.90;;;;;;4900567;29;20667;-86
2022/09/03 03:03:34;;;;;;;12.20;11.18;;;10.80;99.90;;;;;;4900768;29;20703;-87
2022/09/03 03:06:04;;;;;;;11.95;10.95;;;10.70;77.30;;;;;;4900825;29;20198;-86
2022/09/03 03:08:33;;;;;;;12.32;11.32;;;10.70;99.90;;;;;;4900885;29;20253;-87
2022/09/03 03:11:02;;;;;;;12.48;11.43;;;10.70;99.90;;;;;;4900770;29;20206;-86
2022/09/03 03:13:30;;;;;;;12.48;11.45;;;10.70;12.40;;;;;;4900613;29;20194;-88
2022/09/03 03:15:58;;;;;;;11.93;10.98;;;10.70;99.90;;;;;;4900409;29;20197;-87
2022/09/03 03:18:25;;;;;;;12.48;11.43;;;10.70;99.90;;;;;;4901342;29;20270;-88
2022/09/03 03:20:52;;;;;;;12.18;11.18;;;10.70;99.90;;;;;;4900656;29;20225;-88
2022/09/03 03:23:20;;;;;;;12.43;11.38;;;10.70;99.90;;;;;;4892973;29;20197;-87
2022/09/03 03:25:47;;;;;;;11.60;10.65;;;10.70;99.90;;;;;;4900663;29;20194;-87
2022/09/03 03:28:17;;;;;;;11.52;10.60;;;10.70;99.90;;;;;;4900540;29;20217;-87
2022/09/03 03:30:47;;;;;;;9.57;8.88;;;10.70;99.90;;;;;;4900727;29;20217;-87
2022/09/03 03:33:14;;;;;;;10.35;9.55;;;10.70;99.90;;;;;;4900153;29;20201;-87
2022/09/03 03:35:41;;;;;;;10.52;9.73;;;10.70;84.60;;;;;;4900479;29;20201;-87
2022/09/03 03:38:08;;;;;;;6.25;5.85;;;10.70;99.90;;;;;;4900546;29;20712;-87
2022/09/03 03:40:37;;;;;;;7.63;7.13;;;10.60;99.90;;;;;;4900366;29;20221;-87
2022/09/03 03:43:04;;;;;;;6.07;5.72;;;10.70;99.90;;;;;;4900244;29;20238;-87
2022/09/03 03:45:32;;;;;;;10.20;9.45;;;10.70;99.90;;;;;;4900450;29;20209;-87
2022/09/03 03:47:59;;;;;;;9.60;8.90;;;10.70;99.90;;;;;;4900470;29;20285;-87
2022/09/03 03:50:27;;;;;;;10.15;9.40;;;10.60;99.90;;;;;;4900560;29;20608;-87
2022/09/03 03:52:54;;;;;;;10.45;9.65;;;10.70;99.90;;;;;;4899598;29;20287;-87
2022/09/03 03:55:21;;;;;;;11.40;10.50;;;10.70;99.90;;;;;;4900125;29;20253;-87
2022/09/03 03:57:48;;;;;;;10.80;9.98;;;10.70;99.90;;;;;;4900103;29;20246;-88
2022/09/03 04:00:16;;;;;;;11.68;10.77;;;10.60;99.90;;;;;;4900092;29;20218;-88
2022/09/03 04:02:46;;;;;;;11.15;10.25;;;10.60;99.90;;;;;;4899791;29;20194;-87
2022/09/03 04:05:13;;;;;;;12.48;11.48;;;10.60;99.90;;;;;;4900050;29;20200;-86
2022/09/03 04:07:40;;;;;;;11.15;10.25;;;10.60;99.90;;;;;;4900058;29;20198;-86
2022/09/03 04:10:08;;;;;;;12.02;11.02;;;10.60;99.90;;;;;;4899939;29;20262;-86
2022/09/03 04:12:35;;;;;;;11.23;10.35;;;10.60;99.90;;;;;;4899853;29;20194;-86
2022/09/03 04:15:03;;;;;;;9.88;9.15;;;10.60;99.90;;;;;;4899942;29;20249;-88
2022/09/03 04:17:30;;;;;;;11.93;10.95;;;10.60;99.90;;;;;;4899946;29;20197;-86
2022/09/03 04:20:16;;;;;;;11.32;10.43;;;10.60;99.90;;;;;;4916065;29;20361;-89
2022/09/03 04:22:48;;;;;;;11.35;10.48;;;10.60;99.90;;;;;;4921529;29;20201;-92
2022/09/03 04:25:22;;;;;;;9.98;9.23;;;10.70;99.90;;;;;;4922603;29;20194;-92
2022/09/03 04:27:57;;;;;;;10.90;10.07;;;10.70;99.90;;;;;;4922785;29;20200;-91
2022/09/03 04:30:26;;;;;;;10.30;9.52;;;10.70;99.90;;;;;;4900866;29;20201;-87
2022/09/03 04:32:55;;;;;;;10.02;9.32;;;10.70;99.90;;;;;;4907404;29;20189;-90
2022/09/03 04:35:32;;;;;;;8.30;7.75;;;10.80;99.90;;;;;;4922428;29;20202;-92
2022/09/03 04:38:16;;;;;;;8.02;7.53;;;10.80;99.90;;;;;;4922074;29;20201;-93
2022/09/03 04:40:52;;;;;;;6.35;5.97;;;10.80;99.90;;;;;;4921935;29;20240;-89
2022/09/03 04:43:35;;;;;;;6.80;6.38;;;10.80;99.90;;;;;;4921963;29;20190;-91
2022/09/03 04:46:07;;;;;;;9.38;8.70;;;10.90;99.90;;;;;;4919337;29;20592;-95
2022/09/03 04:48:39;;;;;;;9.13;8.52;;;10.90;99.90;;;;;;4922124;29;20233;-90
2022/09/03 04:51:09;;;;;;;8.88;8.25;;;11.00;99.90;;;;;;4916288;29;20228;-87
2022/09/03 04:53:39;;;;;;;8.77;8.18;;;11.00;99.90;;;;;;4911863;29;20186;-91
2022/09/03 04:56:14;;;;;;;6.45;6.05;;;11.00;99.90;;;;;;4922307;29;20222;-92
2022/09/03 04:58:43;;;;;;;5.63;5.30;;;11.10;99.90;;;;;;4898981;29;20189;-87
2022/09/03 05:01:11;;;;;;;6.05;5.75;;;11.10;99.90;;;;;;4912879;29;20224;-87
2022/09/03 05:03:38;;;;;;;4.88;4.60;;;11.20;20.70;;;;;;4910400;29;20205;-87
2022/09/03 05:06:07;;;;;;;6.78;6.35;;;11.30;52.80;;;;;;4898852;29;20574;-89
2022/09/03 05:08:35;;;;;;;10.23;9.45;;;11.70;99.90;;;;;;4898951;29;20202;-88
2022/09/03 05:11:09;;;;;;;11.80;10.85;;;12.50;99.90;;;;;;4918398;29;20225;-93
2022/09/03 05:13:39;;;;;;;12.15;11.18;;;13.40;1.00;;;;;;4921651;29;20189;-92
2022/09/03 05:16:11;;;;;;;13.30;12.13;;;14.20;1.00;;;;;;4921443;29;20289;-92
2022/09/03 05:18:46;;;;;;;12.55;11.40;;;14.90;99.90;;;;;;4921198;29;20208;-89
2022/09/03 05:21:23;;;;;;;14.18;12.82;;;15.50;99.90;;;;;;4920906;29;20232;-92
2022/09/03 05:23:53;;;;;;;14.57;13.15;;;16.00;98.40;;;;;;4934181;29;20270;-91
2022/09/03 05:26:28;;;;;;;14.43;13.02;;;16.40;47.20;;;;;;4932422;29;20182;-91
2022/09/03 05:29:05;;;;;;;14.23;12.88;;;16.80;3.20;;;;;;4937992;29;20214;-90
2022/09/03 05:31:49;;;;;;;14.32;12.93;;;17.40;1.00;;;;;;4940272;29;20186;-90
2022/09/03 05:34:19;;;;;;;15.15;13.57;;;;;;;;;;4938781;29;20173;-91
2022/09/03 05:36:57;;;;;;;15.48;13.82;;;;;;;;;;4920873;29;20210;-91
2022/09/03 05:39:24;;;;;;;15.38;13.75;;;17.70;1.00;;;;;;4904339;29;20190;-84
2022/09/03 05:41:54;;;;;;;14.98;13.45;;;18.50;1.00;;;;;;4911543;29;20250;-93
2022/09/03 05:44:26;;;;;;;15.38;13.75;;;18.70;1.00;;;;;;4920529;29;20205;-92
2022/09/03 05:47:00;;;;;;;13.93;12.57;;;18.90;1.00;;;;;;4919791;29;20206;-91
2022/09/03 05:49:29;;;;;;;14.38;12.95;;;19.10;1.00;;;;;;4918378;29;20646;-92
2022/09/03 05:52:03;;;;;;;14.27;12.85;;;19.10;1.00;;;;;;4920855;29;20240;-91
2022/09/03 05:54:45;;;;;;;15.18;13.60;;;19.30;1.00;;;;;;4920696;29;20202;-91
2022/09/03 05:57:21;;;;;;;15.32;13.75;;;19.60;1.00;;;;;;4920714;29;20236;-94
2022/09/03 05:59:52;;;;;;;15.80;14.15;;;19.80;1.00;;;;;;4920412;29;20216;-93
2022/09/03 06:02:24;;;;;;;15.98;14.30;;;20.00;1.00;;;;;;4912423;29;20236;-93
2022/09/03 06:04:53;;;;;;;14.18;12.80;;;20.20;1.00;;;;;;4920020;29;20216;-92
2022/09/03 06:07:22;;;;;;;17.33;15.15;;;20.50;1.00;;;;;;4924613;29;20189;-90
2022/09/03 06:09:50;;;;;;;16.40;14.57;;;20.70;1.00;;;;;;4939275;29;20193;-90
2022/09/03 06:12:20;;;;;;;24.27;17.85;;;20.70;1.00;;;;;;4938880;29;20230;-90
2022/09/03 06:14:48;;;;;;;18.77;15.52;;;21.00;1.00;;;;;;4939355;29;20189;-91
2022/09/03 06:17:16;;;;;;;25.77;18.40;;;21.30;1.00;;;;;;4939656;29;20258;-91
2022/09/03 06:19:43;;;;;;;31.35;20.30;;;21.50;1.00;;;;;;4939612;29;20199;-91
2022/09/03 06:22:19;;;;;;;32.03;20.55;;;21.50;1.00;;;;;;4939227;29;20285;-91
2022/09/03 06:24:51;;;;;;;40.45;22.50;;;21.70;1.00;;;;;;4939915;29;20186;-91
2022/09/03 06:27:23;;;;;;;28.13;19.20;;;22.00;1.00;;;;;;4939297;29;20253;-94
2022/09/03 06:29:53;;;;;;;35.13;20.98;;;22.30;1.00;;;;;;4939408;29;20251;-92
2022/09/03 06:32:26;;;;;;;37.37;21.60;;;22.30;1.00;;;;;;4938986;29;20270;-90
2022/09/03 06:35:03;;;;;;;45.22;23.58;;;22.60;1.00;;;;;;4939477;29;20210;-88
2022/09/03 06:37:33;;;;;;;46.47;23.88;;;22.80;1.00;;;;;;4936574;29;20254;-89
2022/09/03 06:40:19;;;;;;;55.15;25.38;;;23.00;1.00;;;;;;4937834;29;20218;-91
2022/09/03 06:43:03;;;;;;;57.55;25.90;;;23.20;1.00;;;;;;4939090;29;20187;-90
2022/09/03 06:45:31;;;;;;;;;;;23.40;1.00;;;;;;4939876;29;20114;-91
2022/09/03 06:48:04;;;;;;;42.13;22.85;;;23.70;1.00;;;;;;4939483;29;20225;-90
2022/09/03 06:50:32;;;;;;;52.95;25.15;;;23.90;1.00;;;;;;4935560;29;20288;-93
2022/09/03 06:53:00;;;;;;;55.58;25.65;;;24.10;1.00;;;;;;4915836;29;20228;-92
2022/09/03 06:55:34;;;;;;;57.83;26.23;;;24.40;1.00;;;;;;4919902;29;20212;-91
2022/09/03 06:58:17;;;;;;;61.08;26.70;;;24.50;1.00;;;;;;4920468;29;20202;-92
2022/09/03 07:00:56;;;;;;;62.22;26.83;;;24.60;1.00;;;;;;4920233;29;20259;-92
2022/09/03 07:03:27;;;;;;;63.58;27.25;;;24.70;1.00;;;;;;4920094;29;20177;-91
2022/09/03 07:05:55;;;;;;;62.90;26.98;;;24.80;1.00;;;;;;4919642;29;20215;-92
2022/09/03 07:08:32;;;;;;;59.60;26.20;;;24.90;1.00;;;;;;4920077;29;20200;-93
2022/09/03 07:11:07;;;;;;;64.85;27.15;;;25.00;1.00;;;;;;4907651;29;20193;-86
2022/09/03 07:13:41;;;;;;;63.28;27.20;;;25.00;1.00;;;;;;4903431;29;20203;-91
2022/09/03 07:16:27;;;;;;;64.72;26.90;;;25.00;1.00;;;;;;4916503;29;20215;-93
2022/09/03 07:18:59;;;;;;;83.22;29.35;;;25.20;1.00;;;;;;4919911;29;20231;-91
2022/09/03 07:21:28;;;;;;;136.75;34.45;;;25.20;1.00;;;;;;4897255;29;20216;-87
2022/09/03 07:23:57;;;;;;;109.80;31.48;;;25.30;1.00;;;;;;4931698;29;20211;-92
2022/09/03 07:26:31;;;;;;;115.53;32.30;;;25.30;1.00;;;;;;4939812;29;20263;-93
2022/09/03 07:29:00;;;;;;;89.05;29.40;;;25.30;1.00;;;;;;4942214;29;20195;-89
2022/09/03 07:31:29;;;;;;;89.75;29.67;;;25.60;1.00;;;;;;4920055;29;20210;-87
2022/09/03 07:33:57;;;;;;;91.90;30.38;;;25.80;1.00;;;;;;4919238;29;20201;-87
2022/09/03 07:36:26;;;;;;;94.78;30.02;;;26.00;1.00;;;;;;4919232;29;20203;-87
2022/09/03 07:38:56;;;;;;;89.68;29.85;;;26.10;1.00;;;;;;4919059;29;20207;-87
2022/09/03 07:41:25;;;;;;;96.03;30.48;;;26.10;1.00;;;;;;4919076;29;20262;-85
2022/09/03 07:43:57;;;;;;;91.68;30.02;;;26.00;1.00;;;;;;4931177;29;20171;-91
2022/09/03 07:46:26;;;;;;;107.90;31.30;;;26.30;1.00;;;;;;4916075;29;20217;-88
2022/09/03 07:48:55;;;;;;;91.90;30.25;;;26.60;1.00;;;;;;4907600;29;20045;-89
2022/09/03 07:51:25;;;;;;;87.95;29.77;;;26.80;1.00;;;;;;4904224;29;20264;-88
2022/09/03 07:54:01;;;;;;;104.47;31.23;;;26.60;1.00;;;;;;4899925;29;20286;-88
2022/09/03 07:56:35;;;;;;;80.82;28.98;;;26.50;1.00;;;;;;4921237;29;20222;-91
2022/09/03 07:59:07;;;;;;;68.03;27.42;;;26.20;1.00;;;;;;4922512;29;20201;-91
2022/09/03 08:01:38;;;;;;;65.78;27.30;;;26.10;1.00;;;;;;4922857;29;20327;-90
2022/09/03 08:04:13;;;;;;;86.80;29.30;;;26.10;1.00;;;;;;4922735;29;20181;-92
2022/09/03 08:06:41;;;;;;;104.82;31.23;;;26.20;1.00;;;;;;4918885;29;20698;-85
2022/09/03 08:09:10;;;;;;;109.32;31.63;;;26.20;1.00;;;;;;4918176;29;20225;-85
2022/09/03 08:11:55;;;;;;;111.45;31.88;;;26.20;1.00;;;;;;4929769;29;20211;-90
2022/09/03 08:14:32;;;;;;;114.10;32.30;;;26.20;1.00;;;;;;4929855;29;20199;-91
2022/09/03 08:17:06;;;;;;;114.75;32.40;;;25.90;1.00;;;;;;4922830;29;20221;-91
2022/09/03 08:19:36;;;;;;;110.63;31.80;;;26.00;1.00;;;;;;4922470;29;20195;-93
2022/09/03 08:22:17;;;;;;;110.88;32.00;;;26.00;1.00;;;;;;4922787;29;20220;-91
2022/09/03 08:24:59;;;;;;;113.82;32.08;;;26.10;1.00;;;;;;4922814;29;20200;-90
2022/09/03 08:27:34;;;;;;;107.15;32.03;;;26.00;1.00;;;;;;4922389;29;20202;-91
2022/09/03 08:30:10;;;;;;;112.03;32.38;;;26.00;1.00;;;;;;4921969;29;20290;-89
2022/09/03 08:32:38;;;;;;;99.93;31.00;;;26.10;1.00;;;;;;4909854;29;20289;-86
2022/09/03 08:35:08;;;;;;;95.18;30.58;;;26.10;1.00;;;;;;4899410;29;20203;-87
2022/09/03 08:37:35;;;;;;;101.43;30.83;;;26.20;1.00;;;;;;4899051;29;20569;-86
2022/09/03 08:40:04;;;;;;;87.80;29.98;;;26.40;1.00;;;;;;4899042;29;20249;-87
2022/09/03 08:42:47;;;;;;;82.72;29.30;;;26.60;1.00;;;;;;4898692;29;20721;-86
2022/09/03 08:45:17;;;;;;;80.65;29.10;;;26.40;1.00;;;;;;4899171;29;20672;-88
2022/09/03 08:47:48;;;;;;;80.68;29.08;;;26.40;1.00;;;;;;4899358;29;20190;-87
2022/09/03 08:50:23;;;;;;;80.63;29.23;;;26.40;1.00;;;;;;4898839;29;20550;-86
2022/09/03 08:52:56;;;;;;;78.63;28.88;;;26.20;1.00;;;;;;4899183;29;20236;-88
2022/09/03 08:55:27;;;;;;;87.53;30.05;;;26.30;1.00;;;;;;4898931;29;20195;-87
2022/09/03 08:58:03;;;;;;;86.65;29.73;;;26.40;1.00;;;;;;4898789;29;20215;-86
2022/09/03 09:00:41;;;;;;;111.15;32.25;;;26.50;1.00;;;;;;4880086;29;20193;-87
2022/09/03 09:03:29;;;;;;;102.57;31.05;;;26.60;1.00;;;;;;4921954;29;20224;-89
2022/09/03 09:06:06;;;;;;;100.13;31.05;;;26.70;1.00;;;;;;4916104;29;20191;-92
2022/09/03 09:08:49;;;;;;;93.38;30.63;;;26.60;1.00;;;;;;4921836;29;20199;-90
2022/09/03 09:11:30;;;;;;;100.65;30.88;;;26.50;1.00;;;;;;4921987;29;20202;-88
2022/09/03 09:14:03;;;;;;;105.82;31.83;;;26.30;1.00;;;;;;4921181;29;20185;-89
2022/09/03 09:16:39;;;;;;;102.80;31.30;;;26.30;1.00;;;;;;4920837;29;20216;-90
2022/09/03 09:19:22;;;;;;;95.68;30.40;;;26.30;1.00;;;;;;4921452;29;20202;-93
2022/09/03 09:21:57;;;;;;;89.90;30.23;;;26.30;1.00;;;;;;4921159;29;20235;-91
2022/09/03 09:24:26;;;;;;;78.18;29.05;;;26.10;1.00;;;;;;4913230;29;20225;-85
2022/09/03 09:26:58;;;;;;;75.57;28.50;;;26.00;1.00;;;;;;4900187;29;20201;-86
2022/09/03 09:29:29;;;;;;;83.63;29.60;;;25.90;1.00;;;;;;4894593;29;20179;-85
2022/09/03 09:31:57;;;;;;;95.95;30.73;;;26.00;1.00;;;;;;4898304;29;20606;-84
2022/09/03 09:34:24;;;;;;;101.93;31.00;;;26.20;1.00;;;;;;4898009;29;20201;-86
2022/09/03 09:36:54;;;;;;;88.63;29.42;;;26.40;1.00;;;;;;4898334;29;20206;-85
2022/09/03 09:39:26;;;;;;;85.20;29.23;;;26.40;1.00;;;;;;4917151;29;20198;-90
2022/09/03 09:42:08;;;;;;;90.28;29.40;;;26.30;1.00;;;;;;4920381;29;20201;-90
2022/09/03 09:44:42;;;;;;;80.30;28.27;;;26.00;1.00;;;;;;4920829;29;20204;-90
2022/09/03 09:47:16;;;;;;;68.47;27.05;;;25.70;1.00;;;;;;4920606;29;20177;-90
2022/09/03 09:49:53;;;;;;;71.07;27.33;;;25.50;1.00;;;;;;4909711;29;20194;-90
2022/09/03 09:52:27;;;;;;;80.07;28.25;;;25.20;1.00;;;;;;4920122;29;20220;-92
2022/09/03 09:55:09;;;;;;;86.22;28.83;;;24.90;1.00;;;;;;4920225;29;20198;-90
2022/09/03 09:57:48;;;;;;;95.88;30.15;;;24.80;1.00;;;;;;4920395;29;20232;-92
2022/09/03 10:00:19;;;;;;;89.80;29.10;;;24.80;1.00;;;;;;4920341;29;20198;-93
2022/09/03 10:02:53;;;;;;;91.05;29.30;;;24.30;1.00;;;;;;4920363;29;20230;-93
2022/09/03 10:08:24;;;;;;;95.00;29.98;;;24.00;1.00;;;;;;4919738;29;20205;-90
2022/09/03 10:11:00;;;;;;;91.20;29.42;;;23.80;1.00;;;;;;4920485;29;20194;-91
2022/09/03 10:13:36;;;;;;;92.55;29.92;;;23.20;1.00;;;;;;4920494;29;20213;-90
2022/09/03 10:16:18;;;;;;;94.30;30.05;;;22.90;1.00;;;;;;4920695;29;20216;-90
2022/09/03 10:18:54;;;;;;;91.10;30.05;;;23.00;1.00;;;;;;4914599;29;20210;-90
2022/09/03 10:21:27;;;;;;;88.88;29.30;;;22.90;1.00;;;;;;4919444;29;20194;-86
2022/09/03 10:24:02;;;;;;;89.50;29.45;;;22.40;1.00;;;;;;4888826;29;20205;-90
2022/09/03 10:26:37;;;;;;;90.10;29.55;;;22.00;1.00;;;;;;4896121;29;20177;-92
2022/09/03 10:29:08;;;;;;;89.80;29.30;;;21.90;1.00;;;;;;4900633;29;20189;-91
2022/09/03 10:31:55;;;;;;;95.90;30.23;;;22.20;1.00;;;;;;4894819;29;20219;-87
2022/09/03 10:34:33;;;;;;;92.05;29.85;;;22.50;1.00;;;;;;4887850;29;20259;-86
2022/09/03 10:37:12;;;;;;;94.50;30.35;;;22.60;1.00;;;;;;4883478;29;20200;-86
2022/09/03 10:39:57;;;;;;;87.57;29.38;;;22.50;1.00;;;;;;4896360;29;20201;-86
2022/09/03 10:42:38;;;;;;;90.05;29.60;;;22.40;1.00;;;;;;4896381;29;20217;-87
2022/09/03 10:45:16;;;;;;;90.93;29.73;;;22.10;1.00;;;;;;4896334;29;20222;-87
2022/09/03 10:48:16;;;;;;;92.93;30.17;;;21.90;1.00;;;;;;4896473;29;20251;-86
2022/09/03 10:54:06;;;;;;;85.15;29.00;;;21.70;1.00;;;;;;4915499;29;20604;-87
2022/09/03 10:56:39;;;;;;;80.82;28.67;;;21.50;1.00;;;;;;4894141;29;20194;-86
2022/09/03 10:59:20;;;;;;;89.20;29.65;;;21.30;1.00;;;;;;4897597;29;20184;-87
2022/09/03 11:01:56;;;;;;;95.93;29.17;;;21.10;1.00;;;;;;4896134;29;20209;-87
2022/09/03 11:04:34;;;;;;;92.28;28.80;;;21.10;1.00;;;;;;4899654;29;20190;-86
2022/09/03 11:10:15;;;;;;;97.30;30.75;;;21.10;1.00;;;;;;4953462;23;20232;-90
2022/09/03 11:12:48;;;;;;;93.30;30.55;;;21.20;1.00;;;;;;4923757;29;20187;-90
2022/09/03 11:15:24;;;;;;;91.93;30.55;;;21.30;1.00;;;;;;4920781;29;20211;-86
2022/09/03 11:18:05;;;;;;;88.32;29.55;;;21.60;1.00;;;;;;4922058;29;20284;-92
2022/09/03 11:21:00;;;;;;;91.18;29.38;;;21.70;1.00;;;;;;4923249;29;20196;-91
2022/09/03 11:23:47;;;;;;;90.75;29.17;;;21.70;1.00;;;;;;4923405;29;20212;-90
2022/09/03 11:26:21;;;;;;;91.25;29.25;;;21.50;1.00;;;;;;4923986;29;20174;-93
2022/09/03 11:29:05;;;;;;;89.15;28.92;;;21.40;1.00;;;;;;4923552;29;20194;-89
2022/09/03 11:31:56;;;;;;;88.97;28.98;;;21.30;1.00;;;;;;4923560;29;20210;-93
2022/09/03 11:34:32;;;;;;;90.75;28.95;;;21.30;1.00;;;;;;4923443;29;20205;-88
2022/09/03 11:40:20;;;;;;;90.00;28.98;;;21.60;1.00;;;;;;4921347;29;20203;-92
2022/09/03 11:42:56;;;;;;;94.90;29.35;;;21.60;1.00;;;;;;4922691;29;20307;-92
2022/09/03 11:45:36;;;;;;;96.85;29.60;;;21.60;1.00;;;;;;4898184;29;20194;-87
2022/09/03 11:48:17;;;;;;;90.25;29.13;;;21.40;1.00;;;;;;4898396;29;20186;-87
2022/09/03 11:50:53;;;;;;;87.80;28.45;;;21.30;1.00;;;;;;4897979;29;20198;-87
2022/09/03 11:53:28;;;;;;;86.65;28.17;;;21.30;1.00;;;;;;4900368;29;20535;-88
2022/09/03 11:55:59;;;;;;;86.13;28.48;;;21.50;1.00;;;;;;4900088;29;20220;-89
2022/09/03 11:58:31;;;;;;;88.25;29.20;;;21.70;1.00;;;;;;4900202;29;20592;-87
2022/09/03 12:01:00;;;;;;;83.75;28.67;;;21.70;1.00;;;;;;4899294;29;20220;-88
2022/09/03 12:03:36;;;;;;;84.72;28.75;;;21.70;1.00;;;;;;4899554;29;20579;-87
2022/09/03 12:06:28;;;;;;;86.40;28.90;;;21.60;1.00;;;;;;4899710;29;20521;-88
2022/09/03 12:09:12;;;;;;;87.18;29.10;;;21.60;1.00;;;;;;4888719;29;20233;-87
2022/09/03 12:11:52;;;;;;;85.45;29.30;;;21.60;1.00;;;;;;4898762;29;20288;-87
2022/09/03 12:14:27;;;;;;;82.32;29.08;;;21.90;1.00;;;;;;4899640;29;20194;-89
2022/09/03 12:17:19;;;;;;;83.28;28.98;;;22.20;1.00;;;;;;4922624;29;20189;-91
2022/09/03 12:19:53;;;;;;;80.95;28.77;;;22.30;1.00;;;;;;4918745;29;20217;-93
2022/09/03 12:22:41;;;;;;;83.35;28.95;;;22.40;1.00;;;;;;4922646;29;20221;-89
2022/09/03 12:25:17;;;;;;;86.38;29.17;;;22.30;1.00;;;;;;4922202;29;20197;-92
2022/09/03 12:27:48;;;;;;;89.07;29.75;;;22.30;1.00;;;;;;4922579;29;20194;-92
2022/09/03 12:30:19;;;;;;;87.75;29.58;;;22.50;1.00;;;;;;4922298;29;20266;-92
2022/09/03 12:33:05;;;;;;;88.47;29.65;;;22.50;1.00;;;;;;4922827;29;20181;-91
2022/09/03 12:35:33;;;;;;;89.93;30.02;;;22.30;1.00;;;;;;4922307;29;20210;-92
2022/09/03 12:38:13;;;;;;;88.95;29.60;;;22.10;1.00;;;;;;4921782;29;20194;-90
2022/09/03 12:40:45;;;;;;;90.28;29.83;;;21.90;1.00;;;;;;4922033;29;20274;-91
2022/09/03 12:43:14;;;;;;;88.78;29.48;;;21.90;1.00;;;;;;4921779;29;20218;-94
2022/09/03 12:45:47;;;;;;;90.07;29.83;;;21.80;1.00;;;;;;4922344;29;20198;-93
2022/09/03 12:48:19;;;;;;;93.47;30.15;;;21.90;1.00;;;;;;4922063;29;20278;-90
2022/09/03 12:51:05;;;;;;;94.78;30.20;;;22.00;1.00;;;;;;4921846;29;20191;-91
2022/09/03 12:53:34;;;;;;;94.50;30.23;;;21.90;1.00;;;;;;4921860;29;20238;-92
2022/09/03 12:56:06;;;;;;;95.22;30.58;;;21.80;1.00;;;;;;4915917;29;20195;-89
2022/09/03 12:58:50;;;;;;;95.82;30.50;;;21.70;1.00;;;;;;4917178;29;20194;-90
2022/09/03 13:01:22;;;;;;;95.05;30.33;;;21.70;1.00;;;;;;4912998;29;20197;-87
2022/09/03 13:03:56;;;;;;;93.63;30.13;;;21.70;1.00;;;;;;4913131;29;20234;-89
2022/09/03 13:06:26;;;;;;;92.75;29.98;;;21.70;1.00;;;;;;4914368;29;20197;-88
2022/09/03 13:08:57;;;;;;;91.68;29.95;;;21.60;1.00;;;;;;4910033;29;20237;-88
2022/09/03 13:11:28;;;;;;;91.80;30.05;;;21.50;1.00;;;;;;4909012;29;20194;-89
2022/09/03 13:14:01;;;;;;;89.22;29.60;;;21.40;1.00;;;;;;4907815;29;20204;-88
2022/09/03 13:17:15;;;;;;;88.00;29.42;;;21.30;1.00;;;;;;4898026;29;20202;-86
2022/09/03 13:19:52;;;;;;;85.47;29.15;;;21.30;1.00;;;;;;4898418;29;20192;-86
2022/09/03 13:22:33;;;;;;;80.18;28.58;;;21.50;1.00;;;;;;4906127;29;20219;-91